Ashaway, Rhode Island
Current Conditions -  °F | °C
As of 9:53 AM on Monday 24 Nov 2014 (Local Time) from KWST Reporting Station
Heavy Rain Heavy Rain  
Wind Chill: 59°   Ceiling: 300
Heat Index: 59°   Visibility: 1mi
Dew Point: 58°   Wind: 22mph
Humidity: 96%   Direction: 180°S
Pressure: 29.74"   Gusts: 32mph
Location:  41.43°N, 71.79°W
Report Text: KWST 241453Z AUTO 18019G28KT 1SM +RA BR OVC003 15/14 A2974 RMK AO2 PK WND 15030/1409 SLP071 P0013 60033 T01500144 56019
Loading
Personal Weather Stations






























Interactive Weather Map New forecast layout! Learn more

10-Day Weather Forecast

Advertisements
Track Severe Weather on mobile